EIKY/KIR METAR and TAF weather

Enter ICAO airport designator
Station Type Date Time Source
EIKY METAR 2022/06/29 17:00 UTC NOAA

EIKY 291700Z 29005KT 230V340 9999 BKN049 14/08 Q1009


Station Type Date Time Source
EIKY Decoded METAR 2022/06/29 17:00 UTC NOAA

Station name not available
Jun 29, 2022 - 01:00 PM EDT / 2022.06.29 1700 UTC
Wind: from the WNW (290 degrees) at 6 MPH (5 KT) (direction variable):0
Visibility: greater than 7 mile(s):0
Sky conditions: mostly cloudy
Temperature: 57 F (14 C)
Dew Point: 46 F (8 C)
Relative Humidity: 67%
Pressure (altimeter): 29.80 in. Hg (1009 hPa)
ob: EIKY 291700Z 29005KT 230V340 9999 BKN049 14/08 Q1009
cycle: 17

Station Type Date Time Source
EIKY TAF UTC NOAA

Error!

Example: see airport list